X  Fermer Données météorologiques d'aviation de Metar     LFQQ Lille-Lesquin Airport
Température
17°C Température
14°C Point de rosée
83% Humidité



Vent
13 KM/H
8 MPH
4 M/S
7 KTS



340°
NNO
Conditions actuelles

Plutôt nuageux Plutôt nuageux
Pression 1005.92 (hPa) - 29.7 (inHg)
Visibilité 6.2 (mile) - 10 (km)
Aéroport
Code de l'aéroport LFQQ

Emplacement: Lille-Lesquin Airport
Distance: 15 (km)

Metar:
LFQQ 210000Z AUTO 34007KT 9999 BKN028 OVC058 17/14 Q1006 BECMG OVC007

Temps: 21-06-2021 02:00 CEST